sensor_id;sensor_type;location;lat;lon;timestamp;temperature;humidity
65462;DHT22;53236;43.666;18.444;2022-07-29T15:04:25;29.60;43.80
65462;DHT22;53236;43.666;18.444;2022-07-29T15:06:51;29.50;43.40
65462;DHT22;53236;43.666;18.444;2022-07-29T15:09:17;29.50;43.50
65462;DHT22;53236;43.666;18.444;2022-07-29T15:11:43;29.30;43.50
65462;DHT22;53236;43.666;18.444;2022-07-29T15:14:09;29.30;44.00
65462;DHT22;53236;43.666;18.444;2022-07-29T15:16:36;29.40;44.10
65462;DHT22;53236;43.666;18.444;2022-07-29T15:19:03;29.30;43.90
65462;DHT22;53236;43.666;18.444;2022-07-29T15:21:29;29.30;44.70
65462;DHT22;53236;43.666;18.444;2022-07-29T15:23:55;29.20;45.30
65462;DHT22;53236;43.666;18.444;2022-07-29T15:26:20;29.20;43.90
65462;DHT22;53236;43.666;18.444;2022-07-29T15:28:46;29.20;44.40
65462;DHT22;53236;43.666;18.444;2022-07-29T15:31:12;29.00;44.50
65462;DHT22;53236;43.666;18.444;2022-07-29T15:33:39;29.00;44.80
65462;DHT22;53236;43.666;18.444;2022-07-29T15:36:05;28.90;45.30
65462;DHT22;53236;43.666;18.444;2022-07-29T15:38:30;28.80;45.40
65462;DHT22;53236;43.666;18.444;2022-07-29T15:40:56;28.80;46.20
65462;DHT22;53236;43.666;18.444;2022-07-29T15:43:22;28.80;45.80
65462;DHT22;53236;43.666;18.444;2022-07-29T15:45:48;28.70;46.30
65462;DHT22;53236;43.666;18.444;2022-07-29T15:48:32;28.70;45.90
65462;DHT22;53236;43.666;18.444;2022-07-29T15:50:59;28.80;46.10
65462;DHT22;53236;43.666;18.444;2022-07-29T15:53:25;28.90;45.50
65462;DHT22;53236;43.666;18.444;2022-07-29T15:55:51;28.90;46.30
65462;DHT22;53236;43.666;18.444;2022-07-29T15:58:16;28.80;45.90
65462;DHT22;53236;43.666;18.444;2022-07-29T16:00:42;28.70;45.40
65462;DHT22;53236;43.666;18.444;2022-07-29T16:03:08;28.70;46.90
65462;DHT22;53236;43.666;18.444;2022-07-29T16:05:34;28.70;45.80
65462;DHT22;53236;43.666;18.444;2022-07-29T16:07:59;28.60;47.00
65462;DHT22;53236;43.666;18.444;2022-07-29T16:10:25;28.50;47.70
65462;DHT22;53236;43.666;18.444;2022-07-29T16:12:51;28.30;49.70
65462;DHT22;53236;43.666;18.444;2022-07-29T16:15:17;28.30;50.00
65462;DHT22;53236;43.666;18.444;2022-07-29T16:17:42;28.30;50.60
65462;DHT22;53236;43.666;18.444;2022-07-29T16:20:09;28.20;50.00
65462;DHT22;53236;43.666;18.444;2022-07-29T16:22:34;28.00;51.50
65462;DHT22;53236;43.666;18.444;2022-07-29T16:25:00;27.80;52.00
65462;DHT22;53236;43.666;18.444;2022-07-29T16:27:26;27.70;52.40
65462;DHT22;53236;43.666;18.444;2022-07-29T16:29:55;27.50;52.20
65462;DHT22;53236;43.666;18.444;2022-07-29T16:32:21;27.40;52.30
65462;DHT22;53236;43.666;18.444;2022-07-29T16:34:46;27.20;52.10
65462;DHT22;53236;43.666;18.444;2022-07-29T16:37:12;27.10;52.50
65462;DHT22;53236;43.666;18.444;2022-07-29T16:39:39;26.90;52.00
65462;DHT22;53236;43.666;18.444;2022-07-29T16:42:05;26.70;52.00
65462;DHT22;53236;43.666;18.444;2022-07-29T16:44:31;26.50;53.00
65462;DHT22;53236;43.666;18.444;2022-07-29T16:46:57;26.40;54.70
65462;DHT22;53236;43.666;18.444;2022-07-29T16:49:23;26.10;56.40
65462;DHT22;53236;43.666;18.444;2022-07-29T16:51:48;26.00;56.20
65462;DHT22;53236;43.666;18.444;2022-07-29T16:54:14;25.90;55.80
65462;DHT22;53236;43.666;18.444;2022-07-29T16:56:39;25.70;56.00
65462;DHT22;53236;43.666;18.444;2022-07-29T16:59:05;25.60;56.00
65462;DHT22;53236;43.666;18.444;2022-07-29T17:01:31;25.50;56.80
65462;DHT22;53236;43.666;18.444;2022-07-29T17:03:57;25.40;57.00
65462;DHT22;53236;43.666;18.444;2022-07-29T17:06:36;25.30;57.50
65462;DHT22;53236;43.666;18.444;2022-07-29T17:09:07;25.20;58.00
65462;DHT22;53236;43.666;18.444;2022-07-29T17:11:33;25.00;58.30
65462;DHT22;53236;43.666;18.444;2022-07-29T17:13:59;24.90;58.60
65462;DHT22;53236;43.666;18.444;2022-07-29T17:16:26;24.80;62.70
65462;DHT22;53236;43.666;18.444;2022-07-29T17:18:53;24.60;63.60
65462;DHT22;53236;43.666;18.444;2022-07-29T17:21:19;24.50;63.10
65462;DHT22;53236;43.666;18.444;2022-07-29T17:23:46;24.50;61.60
65462;DHT22;53236;43.666;18.444;2022-07-29T17:26:12;24.30;61.70
65462;DHT22;53236;43.666;18.444;2022-07-29T17:28:37;24.10;63.60
65462;DHT22;53236;43.666;18.444;2022-07-29T17:31:03;24.00;62.90
65462;DHT22;53236;43.666;18.444;2022-07-29T17:33:28;23.90;66.40
65462;DHT22;53236;43.666;18.444;2022-07-29T17:35:54;23.80;66.10
65462;DHT22;53236;43.666;18.444;2022-07-29T17:38:38;23.70;66.90
65462;DHT22;53236;43.666;18.444;2022-07-29T17:41:04;23.60;67.30
65462;DHT22;53236;43.666;18.444;2022-07-29T17:43:29;23.50;66.60
65462;DHT22;53236;43.666;18.444;2022-07-29T17:45:55;23.40;68.40
65462;DHT22;53236;43.666;18.444;2022-07-29T17:48:21;23.30;68.80
65462;DHT22;53236;43.666;18.444;2022-07-29T17:50:47;23.20;71.70
65462;DHT22;53236;43.666;18.444;2022-07-29T17:53:13;23.00;72.80
65462;DHT22;53236;43.666;18.444;2022-07-29T17:55:39;22.90;73.20
65462;DHT22;53236;43.666;18.444;2022-07-29T17:58:05;22.80;74.60
65462;DHT22;53236;43.666;18.444;2022-07-29T18:00:33;22.70;75.00
65462;DHT22;53236;43.666;18.444;2022-07-29T18:02:59;22.70;76.20
65462;DHT22;53236;43.666;18.444;2022-07-29T18:05:25;22.60;77.50
65462;DHT22;53236;43.666;18.444;2022-07-29T18:07:51;22.60;78.60
65462;DHT22;53236;43.666;18.444;2022-07-29T18:10:16;22.50;83.70
65462;DHT22;53236;43.666;18.444;2022-07-29T18:12:42;22.50;86.10
65462;DHT22;53236;43.666;18.444;2022-07-29T18:15:08;22.40;88.40
65462;DHT22;53236;43.666;18.444;2022-07-29T18:17:34;22.30;88.20
65462;DHT22;53236;43.666;18.444;2022-07-29T18:19:59;22.30;90.10
65462;DHT22;53236;43.666;18.444;2022-07-29T18:22:25;22.20;87.80
65462;DHT22;53236;43.666;18.444;2022-07-29T18:24:51;22.30;87.60
65462;DHT22;53236;43.666;18.444;2022-07-29T18:27:16;22.20;88.60
65462;DHT22;53236;43.666;18.444;2022-07-29T18:29:42;22.20;90.30
65462;DHT22;53236;43.666;18.444;2022-07-29T18:32:08;22.20;94.10
65462;DHT22;53236;43.666;18.444;2022-07-29T18:34:33;22.10;95.30
65462;DHT22;53236;43.666;18.444;2022-07-29T18:36:59;22.00;93.60
65462;DHT22;53236;43.666;18.444;2022-07-29T18:39:25;22.00;93.50
65462;DHT22;53236;43.666;18.444;2022-07-29T18:41:50;22.00;94.00
65462;DHT22;53236;43.666;18.444;2022-07-29T18:44:20;21.90;94.20
65462;DHT22;53236;43.666;18.444;2022-07-29T18:46:46;21.90;94.70
65462;DHT22;53236;43.666;18.444;2022-07-29T18:49:12;21.90;94.90
65462;DHT22;53236;43.666;18.444;2022-07-29T18:51:55;21.90;93.50
65462;DHT22;53236;43.666;18.444;2022-07-29T18:54:24;21.90;93.50
65462;DHT22;53236;43.666;18.444;2022-07-29T18:56:50;21.90;92.90
65462;DHT22;53236;43.666;18.444;2022-07-29T18:59:15;21.80;93.10
65462;DHT22;53236;43.666;18.444;2022-07-29T19:01:44;21.80;96.70
65462;DHT22;53236;43.666;18.444;2022-07-29T19:04:10;21.70;97.50
65462;DHT22;53236;43.666;18.444;2022-07-29T19:06:35;21.70;97.60
65462;DHT22;53236;43.666;18.444;2022-07-29T19:09:01;21.60;98.10
65462;DHT22;53236;43.666;18.444;2022-07-29T19:11:27;21.60;98.50
65462;DHT22;53236;43.666;18.444;2022-07-29T19:13:53;21.60;99.90
65462;DHT22;53236;43.666;18.444;2022-07-29T19:16:18;21.50;99.90
65462;DHT22;53236;43.666;18.444;2022-07-29T19:18:44;21.50;99.90
65462;DHT22;53236;43.666;18.444;2022-07-29T19:21:12;21.40;99.90
65462;DHT22;53236;43.666;18.444;2022-07-29T19:23:38;21.30;99.90
65462;DHT22;53236;43.666;18.444;2022-07-29T19:26:04;21.20;99.90
65462;DHT22;53236;43.666;18.444;2022-07-29T19:28:30;21.10;99.90
65462;DHT22;53236;43.666;18.444;2022-07-29T19:30:55;20.90;99.90
65462;DHT22;53236;43.666;18.444;2022-07-29T19:33:21;20.80;99.90
65462;DHT22;53236;43.666;18.444;2022-07-29T19:35:47;20.70;99.90
65462;DHT22;53236;43.666;18.444;2022-07-29T19:38:13;20.70;99.90
65462;DHT22;53236;43.666;18.444;2022-07-29T19:40:38;20.70;99.90
65462;DHT22;53236;43.666;18.444;2022-07-29T19:43:05;20.60;99.90
65462;DHT22;53236;43.666;18.444;2022-07-29T19:45:31;20.40;99.90
65462;DHT22;53236;43.666;18.444;2022-07-29T19:47:58;20.40;99.90
65462;DHT22;53236;43.666;18.444;2022-07-29T19:50:24;20.40;99.90
65462;DHT22;53236;43.666;18.444;2022-07-29T19:52:50;20.40;99.90
65462;DHT22;53236;43.666;18.444;2022-07-29T19:55:16;20.30;99.90
65462;DHT22;53236;43.666;18.444;2022-07-29T19:57:42;20.30;99.90
65462;DHT22;53236;43.666;18.444;2022-07-29T20:00:09;20.20;99.90
65462;DHT22;53236;43.666;18.444;2022-07-29T20:02:35;20.30;99.90
65462;DHT22;53236;43.666;18.444;2022-07-29T20:05:01;20.20;99.90
65462;DHT22;53236;43.666;18.444;2022-07-29T20:07:27;20.20;99.90
65462;DHT22;53236;43.666;18.444;2022-07-29T20:09:52;20.10;99.90
65462;DHT22;53236;43.666;18.444;2022-07-29T20:12:20;20.10;99.90
65462;DHT22;53236;43.666;18.444;2022-07-29T20:14:47;20.00;99.90
65462;DHT22;53236;43.666;18.444;2022-07-29T20:17:13;19.90;99.90
65462;DHT22;53236;43.666;18.444;2022-07-29T20:19:39;19.90;99.90
65462;DHT22;53236;43.666;18.444;2022-07-29T20:22:04;19.80;99.90
65462;DHT22;53236;43.666;18.444;2022-07-29T20:24:31;19.70;99.90
65462;DHT22;53236;43.666;18.444;2022-07-29T20:26:56;19.60;99.90
65462;DHT22;53236;43.666;18.444;2022-07-29T20:29:22;19.50;99.90
65462;DHT22;53236;43.666;18.444;2022-07-29T20:31:48;19.30;99.90
65462;DHT22;53236;43.666;18.444;2022-07-29T20:34:13;19.20;99.90
65462;DHT22;53236;43.666;18.444;2022-07-29T20:36:40;19.10;99.90
65462;DHT22;53236;43.666;18.444;2022-07-29T20:39:05;19.00;99.90
65462;DHT22;53236;43.666;18.444;2022-07-29T20:41:31;18.90;99.90
65462;DHT22;53236;43.666;18.444;2022-07-29T20:44:00;18.80;99.90
65462;DHT22;53236;43.666;18.444;2022-07-29T20:46:26;18.80;99.90
65462;DHT22;53236;43.666;18.444;2022-07-29T20:48:51;18.70;99.90
65462;DHT22;53236;43.666;18.444;2022-07-29T20:51:18;18.60;99.90
65462;DHT22;53236;43.666;18.444;2022-07-29T20:53:45;18.50;99.90
65462;DHT22;53236;43.666;18.444;2022-07-29T20:56:10;18.50;99.90
65462;DHT22;53236;43.666;18.444;2022-07-29T20:58:39;18.40;99.90
65462;DHT22;53236;43.666;18.444;2022-07-29T21:01:06;18.30;99.90
65462;DHT22;53236;43.666;18.444;2022-07-29T21:03:32;18.20;99.90
65462;DHT22;53236;43.666;18.444;2022-07-29T21:05:58;18.10;99.90
65462;DHT22;53236;43.666;18.444;2022-07-29T21:08:25;18.10;99.90
65462;DHT22;53236;43.666;18.444;2022-07-29T21:10:50;18.00;99.90
65462;DHT22;53236;43.666;18.444;2022-07-29T21:13:17;17.90;99.90
65462;DHT22;53236;43.666;18.444;2022-07-29T21:15:45;17.90;99.90
65462;DHT22;53236;43.666;18.444;2022-07-29T21:18:14;17.80;99.90
65462;DHT22;53236;43.666;18.444;2022-07-29T21:20:58;17.80;99.90
65462;DHT22;53236;43.666;18.444;2022-07-29T21:23:24;17.70;99.90
65462;DHT22;53236;43.666;18.444;2022-07-29T21:25:51;17.70;99.90
65462;DHT22;53236;43.666;18.444;2022-07-29T21:28:17;17.60;99.90
65462;DHT22;53236;43.666;18.444;2022-07-29T21:30:59;17.60;99.90
65462;DHT22;53236;43.666;18.444;2022-07-29T21:33:27;17.50;99.90
65462;DHT22;53236;43.666;18.444;2022-07-29T21:35:52;17.50;99.90
65462;DHT22;53236;43.666;18.444;2022-07-29T21:38:18;17.50;99.90
65462;DHT22;53236;43.666;18.444;2022-07-29T21:40:45;17.40;99.90
65462;DHT22;53236;43.666;18.444;2022-07-29T21:43:12;17.30;99.90
65462;DHT22;53236;43.666;18.444;2022-07-29T21:45:38;17.20;99.90
65462;DHT22;53236;43.666;18.444;2022-07-29T21:48:04;17.20;99.90
65462;DHT22;53236;43.666;18.444;2022-07-29T21:50:30;17.20;99.90
65462;DHT22;53236;43.666;18.444;2022-07-29T21:52:56;17.20;99.90
65462;DHT22;53236;43.666;18.444;2022-07-29T21:55:21;17.10;99.90
65462;DHT22;53236;43.666;18.444;2022-07-29T21:57:47;17.00;99.90
65462;DHT22;53236;43.666;18.444;2022-07-29T22:00:13;17.00;99.90
65462;DHT22;53236;43.666;18.444;2022-07-29T22:02:43;16.90;99.90
65462;DHT22;53236;43.666;18.444;2022-07-29T22:05:10;16.90;99.90
65462;DHT22;53236;43.666;18.444;2022-07-29T22:07:37;16.80;99.90
65462;DHT22;53236;43.666;18.444;2022-07-29T22:10:03;16.80;99.90
65462;DHT22;53236;43.666;18.444;2022-07-29T22:12:30;16.70;99.90
65462;DHT22;53236;43.666;18.444;2022-07-29T22:14:56;16.70;99.90
65462;DHT22;53236;43.666;18.444;2022-07-29T22:17:21;16.70;99.90
65462;DHT22;53236;43.666;18.444;2022-07-29T22:19:51;16.60;99.90
65462;DHT22;53236;43.666;18.444;2022-07-29T22:22:17;16.60;99.90
65462;DHT22;53236;43.666;18.444;2022-07-29T22:24:43;16.50;99.90
65462;DHT22;53236;43.666;18.444;2022-07-29T22:27:09;16.50;99.90
65462;DHT22;53236;43.666;18.444;2022-07-29T22:29:34;16.40;99.90
65462;DHT22;53236;43.666;18.444;2022-07-29T22:32:00;16.40;99.90
65462;DHT22;53236;43.666;18.444;2022-07-29T22:34:26;16.40;99.90
65462;DHT22;53236;43.666;18.444;2022-07-29T22:36:51;16.30;99.90
65462;DHT22;53236;43.666;18.444;2022-07-29T22:39:17;16.30;99.90
65462;DHT22;53236;43.666;18.444;2022-07-29T22:41:43;16.30;99.90
65462;DHT22;53236;43.666;18.444;2022-07-29T22:44:08;16.30;99.90
65462;DHT22;53236;43.666;18.444;2022-07-29T22:46:34;16.20;99.90
65462;DHT22;53236;43.666;18.444;2022-07-29T22:49:00;16.20;99.90
65462;DHT22;53236;43.666;18.444;2022-07-29T22:51:26;16.20;99.90
65462;DHT22;53236;43.666;18.444;2022-07-29T22:53:52;16.10;99.90
65462;DHT22;53236;43.666;18.444;2022-07-29T22:56:18;16.10;99.90
65462;DHT22;53236;43.666;18.444;2022-07-29T22:58:44;16.10;99.90
65462;DHT22;53236;43.666;18.444;2022-07-29T23:01:10;16.00;99.90
65462;DHT22;53236;43.666;18.444;2022-07-29T23:03:36;16.10;99.90
65462;DHT22;53236;43.666;18.444;2022-07-29T23:06:02;16.00;99.90
65462;DHT22;53236;43.666;18.444;2022-07-29T23:08:28;16.00;99.90
65462;DHT22;53236;43.666;18.444;2022-07-29T23:10:54;15.90;99.90
65462;DHT22;53236;43.666;18.444;2022-07-29T23:13:19;15.80;99.90
65462;DHT22;53236;43.666;18.444;2022-07-29T23:15:45;15.80;99.90
65462;DHT22;53236;43.666;18.444;2022-07-29T23:18:11;15.80;99.90
65462;DHT22;53236;43.666;18.444;2022-07-29T23:20:36;15.80;99.90
65462;DHT22;53236;43.666;18.444;2022-07-29T23:23:02;15.70;99.90
65462;DHT22;53236;43.666;18.444;2022-07-29T23:25:28;15.70;99.90
65462;DHT22;53236;43.666;18.444;2022-07-29T23:27:53;15.70;99.90
65462;DHT22;53236;43.666;18.444;2022-07-29T23:30:19;15.60;99.90
65462;DHT22;53236;43.666;18.444;2022-07-29T23:32:45;15.60;99.90
65462;DHT22;53236;43.666;18.444;2022-07-29T23:35:10;15.60;99.90
65462;DHT22;53236;43.666;18.444;2022-07-29T23:37:36;15.50;99.90
65462;DHT22;53236;43.666;18.444;2022-07-29T23:40:03;15.50;99.90
65462;DHT22;53236;43.666;18.444;2022-07-29T23:42:29;15.50;99.90
65462;DHT22;53236;43.666;18.444;2022-07-29T23:44:54;15.40;99.90
65462;DHT22;53236;43.666;18.444;2022-07-29T23:47:20;15.40;99.90
65462;DHT22;53236;43.666;18.444;2022-07-29T23:49:46;15.40;99.90
65462;DHT22;53236;43.666;18.444;2022-07-29T23:52:14;15.40;99.90
65462;DHT22;53236;43.666;18.444;2022-07-29T23:54:40;15.40;99.90
65462;DHT22;53236;43.666;18.444;2022-07-29T23:57:06;15.40;99.90
65462;DHT22;53236;43.666;18.444;2022-07-29T23:59:31;15.40;99.90
